Time;durP1;ratioP1;P1;durP2;ratioP2;P2;SDS_P1;SDS_P2;PMS_P1;PMS_P2;Temp;Humidity;BMP_temperature;BMP_pressure;BME280_temperature;BME280_humidity;BME280_pressure;Samples;Min_cycle;Max_cycle;Signal;HPM_P1;HPM_P2
2023/12/22 00:00:36;;;;;;;0.90;0.60;;;;;;;;;;5020553;28;20572;-87
2023/12/22 00:03:04;;;;;;;0.52;0.50;;;;;;;;;;5019777;28;20037;-87
2023/12/22 00:05:33;;;;;;;2.95;0.50;;;;;;;;;;5024722;28;20080;-87
2023/12/22 00:08:06;;;;;;;0.50;0.50;;;;;;;;;;5021797;28;20053;-88
2023/12/22 00:10:34;;;;;;;0.50;0.50;;;;;;;;;;5019212;28;20050;-87
2023/12/22 00:13:03;;;;;;;0.40;0.40;;;;;;;;;;5024194;28;20045;-88
2023/12/22 00:15:31;;;;;;;0.40;0.40;;;;;;;;;;5021337;28;20077;-87
2023/12/22 00:17:59;;;;;;;0.40;0.40;;;;;;;;;;5022874;28;20569;-87
2023/12/22 00:20:28;;;;;;;1.00;0.50;;;;;;;;;;5023464;28;20057;-87
2023/12/22 00:22:56;;;;;;;0.40;0.40;;;;;;;;;;5024186;28;20049;-88
2023/12/22 00:25:26;;;;;;;0.65;0.43;;;;;;;;;;5018575;28;20045;-87
2023/12/22 00:27:54;;;;;;;0.40;0.40;;;;;;;;;;5018727;28;20049;-87
2023/12/22 00:30:24;;;;;;;0.57;0.45;;;;;;;;;;5018573;28;20138;-87
2023/12/22 00:32:52;;;;;;;0.60;0.60;;;;;;;;;;5022255;28;20048;-87
2023/12/22 00:35:21;;;;;;;0.40;0.40;;;;;;;;;;5021733;28;20075;-87
2023/12/22 00:37:49;;;;;;;0.40;0.40;;;;;;;;;;5019591;28;20049;-88
2023/12/22 00:40:18;;;;;;;0.40;0.40;;;;;;;;;;5021558;28;20066;-88
2023/12/22 00:42:48;;;;;;;0.45;0.45;;;;;;;;;;5017994;28;20132;-88
2023/12/22 00:45:16;;;;;;;0.65;0.45;;;;;;;;;;5020953;28;20131;-88
2023/12/22 00:47:44;;;;;;;0.52;0.50;;;;;;;;;;5021221;28;20041;-88
2023/12/22 00:50:13;;;;;;;0.50;0.50;;;;;;;;;;5019199;28;20045;-88
2023/12/22 00:52:42;;;;;;;0.82;0.70;;;;;;;;;;5020456;28;20261;-88
2023/12/22 00:55:10;;;;;;;1.10;0.50;;;;;;;;;;5019928;28;20049;-88
2023/12/22 00:57:39;;;;;;;0.57;0.40;;;;;;;;;;5017412;28;20338;-87
2023/12/22 01:00:11;;;;;;;0.50;0.50;;;;;;;;;;5019081;28;20060;-90
2023/12/22 01:02:40;;;;;;;0.47;0.47;;;;;;;;;;5020721;28;20159;-88
2023/12/22 01:05:09;;;;;;;0.63;0.63;;;;;;;;;;5019381;28;20045;-88
2023/12/22 01:07:37;;;;;;;0.85;0.55;;;;;;;;;;5019463;28;20053;-88
2023/12/22 01:10:06;;;;;;;0.40;0.40;;;;;;;;;;5019000;28;20119;-88
2023/12/22 01:12:35;;;;;;;0.63;0.50;;;;;;;;;;5017013;28;20513;-88
2023/12/22 01:15:03;;;;;;;1.95;0.50;;;;;;;;;;5019619;28;20046;-89
2023/12/22 01:17:33;;;;;;;0.40;0.40;;;;;;;;;;5021666;28;20427;-88
2023/12/22 01:20:02;;;;;;;0.40;0.40;;;;;;;;;;5022047;28;20046;-88
2023/12/22 01:22:32;;;;;;;0.50;0.50;;;;;;;;;;5018546;28;20047;-88
2023/12/22 01:25:01;;;;;;;0.47;0.45;;;;;;;;;;5021672;28;20053;-88
2023/12/22 01:27:29;;;;;;;0.50;0.50;;;;;;;;;;5019027;28;20076;-89
2023/12/22 01:29:57;;;;;;;0.47;0.47;;;;;;;;;;5019144;28;20049;-88
2023/12/22 01:32:26;;;;;;;0.73;0.50;;;;;;;;;;5020905;28;20111;-88
2023/12/22 01:34:56;;;;;;;0.68;0.68;;;;;;;;;;5021933;28;20048;-88
2023/12/22 01:37:24;;;;;;;0.40;0.40;;;;;;;;;;5018326;28;20060;-89
2023/12/22 01:39:54;;;;;;;0.63;0.52;;;;;;;;;;5018608;28;20235;-88
2023/12/22 01:42:22;;;;;;;0.63;0.50;;;;;;;;;;5017620;28;20041;-88
2023/12/22 01:44:51;;;;;;;2.30;0.57;;;;;;;;;;5019532;28;20083;-88
2023/12/22 01:47:19;;;;;;;1.20;0.50;;;;;;;;;;5018504;28;20044;-87
2023/12/22 01:49:48;;;;;;;1.08;0.50;;;;;;;;;;5019279;28;20174;-87
2023/12/22 01:52:18;;;;;;;0.40;0.40;;;;;;;;;;5017271;28;20057;-88
2023/12/22 01:54:46;;;;;;;1.20;0.50;;;;;;;;;;5018652;28;20107;-89
2023/12/22 01:57:17;;;;;;;0.40;0.40;;;;;;;;;;5019011;28;20042;-88
2023/12/22 01:59:46;;;;;;;1.05;0.68;;;;;;;;;;5020530;28;20081;-87
2023/12/22 02:02:14;;;;;;;2.92;0.50;;;;;;;;;;5020960;28;20176;-87
2023/12/22 02:04:43;;;;;;;0.50;0.50;;;;;;;;;;5020191;28;20069;-87
2023/12/22 02:07:12;;;;;;;0.40;0.40;;;;;;;;;;5019776;28;20120;-87
2023/12/22 02:09:42;;;;;;;0.47;0.47;;;;;;;;;;5023236;28;20053;-87
2023/12/22 02:12:11;;;;;;;0.40;0.40;;;;;;;;;;5019075;28;20049;-87
2023/12/22 02:14:39;;;;;;;0.82;0.60;;;;;;;;;;5018951;28;20046;-86
2023/12/22 02:17:12;;;;;;;0.80;0.40;;;;;;;;;;5022093;28;20501;-87
2023/12/22 02:19:43;;;;;;;0.40;0.40;;;;;;;;;;5019294;28;20054;-87
2023/12/22 02:22:12;;;;;;;0.40;0.40;;;;;;;;;;5023079;28;20041;-86
2023/12/22 02:24:42;;;;;;;0.40;0.40;;;;;;;;;;5021813;28;20057;-86
2023/12/22 02:27:16;;;;;;;0.60;0.60;;;;;;;;;;5024873;28;20053;-86
2023/12/22 02:29:47;;;;;;;0.50;0.50;;;;;;;;;;5024185;28;20033;-86
2023/12/22 02:32:18;;;;;;;0.55;0.55;;;;;;;;;;5020035;28;20107;-87
2023/12/22 02:34:48;;;;;;;0.40;0.40;;;;;;;;;;5019719;28;20050;-87
2023/12/22 02:37:18;;;;;;;1.15;0.60;;;;;;;;;;5022388;28;20045;-86
2023/12/22 02:39:48;;;;;;;0.40;0.40;;;;;;;;;;5021654;28;20046;-87
2023/12/22 02:42:17;;;;;;;0.40;0.40;;;;;;;;;;5022500;28;20099;-87
2023/12/22 02:44:45;;;;;;;0.50;0.50;;;;;;;;;;5021208;28;20405;-87
2023/12/22 02:47:14;;;;;;;0.40;0.40;;;;;;;;;;5021697;28;20049;-87
2023/12/22 02:49:42;;;;;;;0.45;0.43;;;;;;;;;;5023004;28;20046;-87
2023/12/22 02:52:10;;;;;;;0.50;0.50;;;;;;;;;;5020776;28;20099;-88
2023/12/22 02:54:39;;;;;;;0.50;0.50;;;;;;;;;;5020658;28;20487;-87
2023/12/22 02:57:09;;;;;;;0.40;0.40;;;;;;;;;;5021244;28;20453;-87
2023/12/22 02:59:38;;;;;;;1.10;0.43;;;;;;;;;;5021840;28;20056;-88
2023/12/22 03:02:07;;;;;;;0.50;0.50;;;;;;;;;;5021567;28;20561;-88
2023/12/22 03:04:35;;;;;;;0.50;0.50;;;;;;;;;;5018620;28;20058;-87
2023/12/22 03:07:03;;;;;;;0.40;0.40;;;;;;;;;;5021550;28;20049;-87
2023/12/22 03:09:34;;;;;;;0.47;0.47;;;;;;;;;;5020637;28;20103;-86
2023/12/22 03:12:06;;;;;;;0.50;0.50;;;;;;;;;;5022042;28;20042;-86
2023/12/22 03:14:36;;;;;;;0.50;0.50;;;;;;;;;;5020949;28;20049;-87
2023/12/22 03:17:06;;;;;;;0.55;0.55;;;;;;;;;;5021033;28;20108;-87
2023/12/22 03:19:35;;;;;;;0.40;0.40;;;;;;;;;;5021330;28;20050;-87
2023/12/22 03:22:03;;;;;;;0.50;0.50;;;;;;;;;;5020968;28;20050;-87
2023/12/22 03:24:32;;;;;;;0.50;0.50;;;;;;;;;;5021536;28;20065;-89
2023/12/22 03:27:00;;;;;;;0.45;0.45;;;;;;;;;;5020238;28;20049;-86
2023/12/22 03:29:29;;;;;;;0.75;0.50;;;;;;;;;;5021155;28;20525;-87
2023/12/22 03:31:58;;;;;;;0.50;0.50;;;;;;;;;;5017641;28;20045;-87
2023/12/22 03:34:27;;;;;;;0.50;0.50;;;;;;;;;;5020435;28;20049;-87
2023/12/22 03:36:55;;;;;;;3.17;0.77;;;;;;;;;;5019958;28;20072;-87
2023/12/22 03:39:24;;;;;;;0.63;0.60;;;;;;;;;;5021114;28;20077;-87
2023/12/22 03:41:52;;;;;;;0.50;0.50;;;;;;;;;;5019959;28;20060;-87
2023/12/22 03:44:20;;;;;;;0.40;0.40;;;;;;;;;;5022200;28;20399;-86
2023/12/22 03:46:53;;;;;;;0.50;0.50;;;;;;;;;;5017511;28;20050;-86
2023/12/22 03:49:23;;;;;;;2.15;0.50;;;;;;;;;;5021321;28;20042;-87
2023/12/22 03:51:51;;;;;;;0.60;0.60;;;;;;;;;;5023521;28;20050;-87
2023/12/22 03:54:20;;;;;;;0.52;0.50;;;;;;;;;;5020469;28;20049;-87
2023/12/22 03:56:49;;;;;;;0.57;0.50;;;;;;;;;;5018939;28;20053;-86
2023/12/22 03:59:18;;;;;;;0.88;0.60;;;;;;;;;;5017453;28;20046;-88
2023/12/22 04:01:52;;;;;;;0.65;0.50;;;;;;;;;;5023595;28;20100;-87
2023/12/22 04:04:22;;;;;;;0.50;0.50;;;;;;;;;;5024492;28;20111;-87
2023/12/22 04:06:52;;;;;;;0.60;0.60;;;;;;;;;;5019906;28;20120;-86
2023/12/22 04:09:20;;;;;;;0.75;0.65;;;;;;;;;;5019001;28;20076;-87
2023/12/22 04:11:48;;;;;;;0.50;0.50;;;;;;;;;;5018611;28;20046;-88
2023/12/22 04:14:18;;;;;;;0.52;0.50;;;;;;;;;;5021498;28;20042;-87
2023/12/22 04:16:47;;;;;;;0.82;0.50;;;;;;;;;;5024594;28;20147;-87
2023/12/22 04:19:15;;;;;;;0.50;0.40;;;;;;;;;;5021480;28;20061;-86
2023/12/22 04:21:44;;;;;;;1.42;0.70;;;;;;;;;;5021058;28;20136;-87
2023/12/22 04:24:14;;;;;;;0.68;0.68;;;;;;;;;;5020134;28;20137;-87
2023/12/22 04:26:42;;;;;;;1.60;0.70;;;;;;;;;;5019020;28;20493;-88
2023/12/22 04:29:10;;;;;;;4.55;0.80;;;;;;;;;;5018264;28;20113;-87
2023/12/22 04:31:39;;;;;;;0.60;0.57;;;;;;;;;;5021375;28;20077;-86
2023/12/22 04:34:07;;;;;;;1.05;0.70;;;;;;;;;;5018328;28;20418;-86
2023/12/22 04:36:37;;;;;;;0.68;0.68;;;;;;;;;;5018312;28;20056;-87
2023/12/22 04:39:05;;;;;;;2.05;0.50;;;;;;;;;;5020485;28;20049;-87
2023/12/22 04:41:35;;;;;;;2.78;0.70;;;;;;;;;;5020246;28;20136;-87
2023/12/22 04:44:03;;;;;;;0.50;0.50;;;;;;;;;;5016088;28;20052;-88
2023/12/22 04:46:31;;;;;;;1.17;0.60;;;;;;;;;;5017604;28;20296;-86
2023/12/22 04:49:01;;;;;;;0.50;0.50;;;;;;;;;;5019401;28;20148;-88
2023/12/22 04:51:30;;;;;;;0.60;0.60;;;;;;;;;;5020223;28;20055;-88
2023/12/22 04:53:58;;;;;;;0.55;0.55;;;;;;;;;;5018779;28;20111;-86
2023/12/22 04:56:27;;;;;;;2.55;0.80;;;;;;;;;;5015627;28;20103;-87
2023/12/22 04:58:57;;;;;;;2.80;0.70;;;;;;;;;;5018820;28;20706;-86
2023/12/22 05:01:25;;;;;;;1.35;0.60;;;;;;;;;;5016495;28;20061;-87
2023/12/22 05:03:54;;;;;;;1.17;0.82;;;;;;;;;;5015263;28;20041;-87
2023/12/22 05:06:23;;;;;;;1.08;0.60;;;;;;;;;;5017427;28;20116;-87
2023/12/22 05:08:51;;;;;;;0.47;0.47;;;;;;;;;;5015644;28;20045;-86
2023/12/22 05:11:20;;;;;;;2.05;0.60;;;;;;;;;;5017436;28;20057;-87
2023/12/22 05:13:49;;;;;;;0.80;0.80;;;;;;;;;;5015963;28;20468;-86
2023/12/22 05:16:19;;;;;;;1.10;0.75;;;;;;;;;;5016507;28;20050;-86
2023/12/22 05:18:48;;;;;;;1.33;0.57;;;;;;;;;;5018980;28;20049;-90
2023/12/22 05:21:16;;;;;;;0.73;0.73;;;;;;;;;;5017988;28;20054;-86
2023/12/22 05:23:44;;;;;;;2.50;0.70;;;;;;;;;;5018226;28;20132;-88
2023/12/22 05:26:17;;;;;;;0.70;0.50;;;;;;;;;;5017914;28;20045;-89
2023/12/22 05:28:46;;;;;;;1.10;0.50;;;;;;;;;;5018747;28;20050;-87
2023/12/22 05:31:14;;;;;;;3.08;0.75;;;;;;;;;;5019279;28;20136;-89
2023/12/22 05:33:44;;;;;;;5.18;0.90;;;;;;;;;;5019373;28;20054;-87
2023/12/22 05:36:13;;;;;;;0.50;0.50;;;;;;;;;;5017328;28;20072;-86
2023/12/22 05:38:41;;;;;;;0.68;0.60;;;;;;;;;;5016186;28;20096;-87
2023/12/22 05:41:10;;;;;;;1.13;0.80;;;;;;;;;;5016654;28;20073;-89
2023/12/22 05:43:38;;;;;;;2.20;0.50;;;;;;;;;;5017121;28;20054;-86
2023/12/22 05:46:07;;;;;;;0.82;0.75;;;;;;;;;;5016385;28;20053;-89
2023/12/22 05:48:35;;;;;;;0.68;0.68;;;;;;;;;;5018480;28;20469;-87
2023/12/22 05:51:09;;;;;;;3.33;0.70;;;;;;;;;;5018285;28;20045;-88
2023/12/22 05:53:38;;;;;;;1.17;0.70;;;;;;;;;;5017124;28;20076;-89
2023/12/22 05:56:07;;;;;;;0.50;0.50;;;;;;;;;;5019803;28;20115;-86
2023/12/22 05:58:35;;;;;;;1.90;0.70;;;;;;;;;;5024638;28;20099;-87
2023/12/22 06:01:03;;;;;;;2.58;0.50;;;;;;;;;;5021171;28;20046;-86
2023/12/22 06:03:32;;;;;;;3.28;0.68;;;;;;;;;;5026676;28;20046;-89
2023/12/22 06:06:00;;;;;;;0.50;0.50;;;;;;;;;;5023724;28;20478;-86
2023/12/22 06:08:34;;;;;;;0.93;0.57;;;;;;;;;;5025108;28;20097;-86
2023/12/22 06:11:02;;;;;;;2.85;0.77;;;;;;;;;;5021969;28;20494;-85
2023/12/22 06:13:31;;;;;;;1.08;0.45;;;;;;;;;;5025165;28;20340;-85
2023/12/22 06:16:00;;;;;;;2.00;0.55;;;;;;;;;;5016375;28;20060;-86
2023/12/22 06:18:28;;;;;;;0.80;0.50;;;;;;;;;;5025505;28;20395;-86
2023/12/22 06:20:57;;;;;;;1.73;0.68;;;;;;;;;;5026126;28;20406;-87
2023/12/22 06:23:25;;;;;;;1.63;0.50;;;;;;;;;;5024955;28;20050;-85
2023/12/22 06:25:55;;;;;;;0.50;0.50;;;;;;;;;;5020466;28;20147;-86
2023/12/22 06:28:23;;;;;;;1.10;0.40;;;;;;;;;;5024221;28;20128;-86
2023/12/22 06:30:52;;;;;;;1.05;0.47;;;;;;;;;;5025247;28;20060;-86
2023/12/22 06:33:20;;;;;;;0.98;0.45;;;;;;;;;;5024905;28;20420;-85
2023/12/22 06:35:53;;;;;;;0.52;0.50;;;;;;;;;;5025814;28;20046;-87
2023/12/22 06:38:21;;;;;;;1.95;0.63;;;;;;;;;;5019940;28;20057;-85
2023/12/22 06:40:50;;;;;;;0.85;0.52;;;;;;;;;;5022045;28;20438;-85
2023/12/22 06:43:20;;;;;;;1.10;0.70;;;;;;;;;;5020466;28;20121;-85
2023/12/22 06:45:49;;;;;;;0.47;0.47;;;;;;;;;;5024462;28;20060;-86
2023/12/22 06:48:17;;;;;;;1.30;0.47;;;;;;;;;;5020093;28;20134;-86
2023/12/22 06:50:45;;;;;;;0.90;0.50;;;;;;;;;;5021939;28;20045;-86
2023/12/22 06:53:14;;;;;;;0.57;0.57;;;;;;;;;;5022540;28;20782;-87
2023/12/22 06:55:54;;;;;;;2.58;0.60;;;;;;;;;;5022130;28;20048;-87
2023/12/22 06:58:25;;;;;;;1.27;0.70;;;;;;;;;;5022525;28;20041;-86
2023/12/22 07:00:54;;;;;;;2.40;0.50;;;;;;;;;;5020684;28;20473;-86
2023/12/22 07:03:22;;;;;;;3.03;1.13;;;;;;;;;;5020362;28;20041;-86
2023/12/22 07:05:51;;;;;;;3.80;0.70;;;;;;;;;;5021325;28;20429;-86
2023/12/22 07:08:19;;;;;;;2.95;0.70;;;;;;;;;;5021790;28;20073;-86
2023/12/22 07:10:47;;;;;;;0.73;0.60;;;;;;;;;;5019556;28;20053;-86
2023/12/22 07:13:16;;;;;;;0.90;0.55;;;;;;;;;;5019652;28;20128;-86
2023/12/22 07:15:47;;;;;;;1.23;0.70;;;;;;;;;;5022545;28;20072;-89
2023/12/22 07:18:15;;;;;;;2.97;0.55;;;;;;;;;;5021739;28;20057;-86
2023/12/22 07:20:44;;;;;;;3.60;0.63;;;;;;;;;;5018623;28;20054;-86
2023/12/22 07:23:12;;;;;;;0.85;0.70;;;;;;;;;;5025788;28;20511;-87
2023/12/22 07:25:41;;;;;;;0.63;0.60;;;;;;;;;;5020652;28;20486;-86
2023/12/22 07:28:10;;;;;;;0.55;0.50;;;;;;;;;;5018849;28;20143;-86
2023/12/22 07:30:39;;;;;;;0.95;0.52;;;;;;;;;;5021200;28;20186;-86
2023/12/22 07:33:08;;;;;;;0.63;0.60;;;;;;;;;;5020686;28;20091;-86
2023/12/22 07:35:39;;;;;;;3.45;0.60;;;;;;;;;;5019426;28;20391;-86
2023/12/22 07:38:09;;;;;;;3.15;0.60;;;;;;;;;;5020939;28;20088;-86
2023/12/22 07:40:37;;;;;;;1.05;0.60;;;;;;;;;;5018284;28;20054;-86
2023/12/22 07:43:07;;;;;;;0.60;0.60;;;;;;;;;;5018435;28;20524;-89
2023/12/22 07:45:37;;;;;;;2.38;0.77;;;;;;;;;;5020043;28;20077;-85
2023/12/22 07:48:06;;;;;;;4.30;0.80;;;;;;;;;;5021137;28;20118;-86
2023/12/22 07:50:36;;;;;;;1.30;0.68;;;;;;;;;;5019699;28;20049;-86
2023/12/22 07:53:05;;;;;;;2.15;0.90;;;;;;;;;;5020177;28;20412;-86
2023/12/22 07:55:38;;;;;;;2.80;1.10;;;;;;;;;;5019726;28;20600;-85
2023/12/22 07:58:07;;;;;;;2.13;0.77;;;;;;;;;;5022702;28;20127;-85
2023/12/22 08:00:35;;;;;;;2.28;0.60;;;;;;;;;;5021213;28;20069;-86
2023/12/22 08:03:04;;;;;;;0.60;0.60;;;;;;;;;;5017964;28;20351;-87
2023/12/22 08:05:33;;;;;;;0.77;0.63;;;;;;;;;;5018085;28;20076;-87
2023/12/22 08:08:03;;;;;;;2.92;1.15;;;;;;;;;;5021531;28;20107;-86
2023/12/22 08:10:31;;;;;;;1.33;0.77;;;;;;;;;;5024401;28;20544;-86
2023/12/22 08:13:00;;;;;;;1.55;1.10;;;;;;;;;;5021159;28;20471;-87
2023/12/22 08:15:28;;;;;;;2.00;0.93;;;;;;;;;;5017582;28;20129;-86
2023/12/22 08:18:04;;;;;;;0.95;0.70;;;;;;;;;;5024723;28;20075;-87
2023/12/22 08:20:40;;;;;;;0.65;0.65;;;;;;;;;;5017086;28;20159;-86
2023/12/22 08:23:13;;;;;;;0.60;0.60;;;;;;;;;;5026387;28;20485;-87
2023/12/22 08:25:42;;;;;;;1.38;0.80;;;;;;;;;;5022565;28;20096;-88
2023/12/22 08:28:12;;;;;;;1.50;0.70;;;;;;;;;;5022100;28;20061;-87
2023/12/22 08:30:42;;;;;;;0.93;0.63;;;;;;;;;;5023456;28;20061;-87
2023/12/22 08:33:11;;;;;;;3.50;1.13;;;;;;;;;;5020469;28;20042;-87
2023/12/22 08:35:39;;;;;;;1.73;0.80;;;;;;;;;;5023826;28;20418;-86
2023/12/22 08:38:08;;;;;;;2.83;1.02;;;;;;;;;;5015626;28;20065;-87
2023/12/22 08:40:38;;;;;;;3.22;0.90;;;;;;;;;;5015810;28;20061;-87
2023/12/22 08:43:07;;;;;;;2.72;1.05;;;;;;;;;;5021364;28;20556;-86
2023/12/22 08:45:35;;;;;;;3.35;0.60;;;;;;;;;;5016867;28;20037;-86
2023/12/22 08:48:07;;;;;;;2.92;0.77;;;;;;;;;;5022744;28;20053;-86
2023/12/22 08:50:36;;;;;;;1.83;0.95;;;;;;;;;;5020766;28;20053;-87
2023/12/22 08:53:05;;;;;;;2.17;1.20;;;;;;;;;;5022598;28;20041;-86
2023/12/22 08:55:33;;;;;;;2.28;0.82;;;;;;;;;;5018025;28;20052;-86
2023/12/22 08:58:03;;;;;;;1.45;0.80;;;;;;;;;;5019636;28;20046;-85
2023/12/22 09:00:32;;;;;;;2.88;0.70;;;;;;;;;;5021373;28;20111;-86
2023/12/22 09:03:02;;;;;;;1.75;0.85;;;;;;;;;;5024042;28;20075;-87
2023/12/22 09:05:31;;;;;;;1.33;0.70;;;;;;;;;;5031015;28;20059;-88
2023/12/22 09:08:00;;;;;;;1.27;0.82;;;;;;;;;;5028407;28;20537;-86
2023/12/22 09:10:28;;;;;;;2.67;1.00;;;;;;;;;;5026430;28;20068;-86
2023/12/22 09:12:57;;;;;;;3.53;0.90;;;;;;;;;;5022546;28;20473;-87
2023/12/22 09:15:27;;;;;;;0.50;0.50;;;;;;;;;;5021886;28;20099;-86
2023/12/22 09:17:55;;;;;;;1.35;0.80;;;;;;;;;;5017557;28;20091;-86
2023/12/22 09:20:24;;;;;;;5.97;0.98;;;;;;;;;;5019812;28;20081;-87
2023/12/22 09:22:53;;;;;;;1.45;0.98;;;;;;;;;;5023656;28;20041;-86
2023/12/22 09:25:21;;;;;;;1.65;1.00;;;;;;;;;;5018943;28;20049;-86
2023/12/22 09:27:49;;;;;;;5.57;1.10;;;;;;;;;;5021842;28;20401;-85
2023/12/22 09:30:18;;;;;;;2.05;0.77;;;;;;;;;;5021094;28;20115;-86
2023/12/22 09:32:48;;;;;;;4.25;1.30;;;;;;;;;;5019878;28;20491;-86
2023/12/22 09:35:17;;;;;;;3.45;0.73;;;;;;;;;;5014962;28;20060;-87
2023/12/22 09:37:45;;;;;;;0.70;0.63;;;;;;;;;;5018584;28;20069;-86
2023/12/22 09:40:14;;;;;;;4.40;1.00;;;;;;;;;;5022176;28;20128;-86
2023/12/22 09:42:43;;;;;;;1.83;0.73;;;;;;;;;;5019290;28;20050;-87
2023/12/22 09:45:13;;;;;;;1.88;0.82;;;;;;;;;;5014945;28;20095;-87
2023/12/22 09:47:43;;;;;;;8.10;1.00;;;;;;;;;;5018833;28;20508;-88
2023/12/22 09:50:14;;;;;;;4.22;1.15;;;;;;;;;;5016247;28;20170;-87
2023/12/22 09:52:45;;;;;;;1.08;0.75;;;;;;;;;;5017884;28;20723;-86
2023/12/22 09:55:14;;;;;;;1.05;0.80;;;;;;;;;;5019890;28;20045;-87
2023/12/22 09:57:43;;;;;;;0.50;0.50;;;;;;;;;;5015976;28;20145;-88
2023/12/22 10:00:12;;;;;;;2.30;0.75;;;;;;;;;;5021358;28;20441;-86
2023/12/22 10:02:41;;;;;;;2.75;1.17;;;;;;;;;;5016857;28;20073;-85
2023/12/22 10:05:10;;;;;;;1.73;0.65;;;;;;;;;;5017246;28;20050;-86
2023/12/22 10:07:40;;;;;;;0.93;0.75;;;;;;;;;;5017541;28;20103;-87
2023/12/22 10:10:09;;;;;;;2.05;0.70;;;;;;;;;;5017378;28;20415;-86
2023/12/22 10:12:38;;;;;;;1.73;0.65;;;;;;;;;;5021091;28;20053;-85
2023/12/22 10:15:07;;;;;;;1.17;0.70;;;;;;;;;;5016960;28;20095;-85
2023/12/22 10:17:36;;;;;;;1.10;0.60;;;;;;;;;;5019912;28;20486;-86
2023/12/22 10:20:05;;;;;;;0.73;0.60;;;;;;;;;;5014371;28;20042;-86
2023/12/22 10:22:34;;;;;;;0.70;0.57;;;;;;;;;;5019699;28;20080;-86
2023/12/22 10:25:06;;;;;;;0.90;0.63;;;;;;;;;;5017739;28;20042;-86
2023/12/22 10:27:37;;;;;;;0.50;0.50;;;;;;;;;;5020801;28;20111;-86
2023/12/22 10:30:06;;;;;;;1.77;0.80;;;;;;;;;;5018885;28;20457;-88
2023/12/22 10:32:34;;;;;;;0.70;0.52;;;;;;;;;;5020315;28;20115;-86
2023/12/22 10:35:02;;;;;;;0.98;0.63;;;;;;;;;;5019857;28;20046;-86
2023/12/22 10:37:31;;;;;;;0.40;0.40;;;;;;;;;;5020388;28;20083;-90
2023/12/22 10:39:59;;;;;;;0.57;0.57;;;;;;;;;;5017182;28;20046;-90
2023/12/22 10:42:29;;;;;;;0.50;0.50;;;;;;;;;;5019986;28;20049;-90
2023/12/22 10:44:58;;;;;;;0.50;0.50;;;;;;;;;;5020069;28;20049;-89
2023/12/22 10:47:26;;;;;;;0.50;0.50;;;;;;;;;;5022287;28;20462;-88
2023/12/22 10:49:55;;;;;;;0.60;0.60;;;;;;;;;;5022481;28;20057;-87
2023/12/22 10:52:23;;;;;;;0.45;0.45;;;;;;;;;;5024761;28;20042;-88
2023/12/22 10:54:52;;;;;;;0.57;0.50;;;;;;;;;;5022197;28;20529;-89
2023/12/22 10:57:20;;;;;;;3.65;0.80;;;;;;;;;;5018086;28;20081;-91
2023/12/22 10:59:50;;;;;;;0.93;0.60;;;;;;;;;;5021568;28;20045;-88
2023/12/22 11:02:28;;;;;;;0.90;0.60;;;;;;;;;;5020634;28;20132;-87
2023/12/22 11:04:58;;;;;;;0.88;0.57;;;;;;;;;;5021718;28;20049;-88
2023/12/22 11:07:30;;;;;;;1.73;0.70;;;;;;;;;;5022888;28;20081;-89
2023/12/22 11:10:03;;;;;;;0.70;0.70;;;;;;;;;;5022309;28;20054;-88
2023/12/22 11:12:33;;;;;;;1.23;0.70;;;;;;;;;;5024263;28;20050;-88
2023/12/22 11:15:05;;;;;;;1.50;0.77;;;;;;;;;;5022131;28;20045;-88
2023/12/22 11:17:35;;;;;;;0.65;0.60;;;;;;;;;;5020532;28;20049;-89
2023/12/22 11:20:05;;;;;;;2.92;0.88;;;;;;;;;;5021933;28;20056;-85
2023/12/22 11:22:35;;;;;;;1.38;0.70;;;;;;;;;;5019678;28;20524;-85
2023/12/22 11:25:04;;;;;;;1.48;0.55;;;;;;;;;;5020558;28;20194;-85
2023/12/22 11:27:34;;;;;;;1.42;0.82;;;;;;;;;;5019163;28;20061;-86
2023/12/22 11:30:08;;;;;;;1.60;0.80;;;;;;;;;;5021551;28;20536;-86
2023/12/22 11:32:36;;;;;;;0.70;0.60;;;;;;;;;;5021003;28;20034;-85
2023/12/22 11:35:07;;;;;;;0.90;0.57;;;;;;;;;;5020462;28;20045;-85
2023/12/22 11:37:37;;;;;;;2.47;0.70;;;;;;;;;;5022036;28;20058;-84
2023/12/22 11:40:06;;;;;;;2.25;1.08;;;;;;;;;;5020233;28;20414;-85
2023/12/22 11:42:38;;;;;;;0.65;0.55;;;;;;;;;;5016257;28;20093;-88
2023/12/22 11:45:11;;;;;;;0.60;0.60;;;;;;;;;;5022277;28;20049;-89
2023/12/22 11:47:39;;;;;;;2.95;0.80;;;;;;;;;;5015889;28;20065;-86
2023/12/22 11:50:10;;;;;;;3.60;1.23;;;;;;;;;;5020466;28;20046;-85
2023/12/22 11:52:39;;;;;;;2.47;0.70;;;;;;;;;;5018169;28;20414;-85
2023/12/22 11:55:09;;;;;;;3.80;0.80;;;;;;;;;;5020987;28;20124;-87
2023/12/22 11:57:38;;;;;;;1.27;1.02;;;;;;;;;;5019930;28;20073;-85
2023/12/22 12:00:10;;;;;;;3.65;0.95;;;;;;;;;;5017574;28;20131;-86
2023/12/22 12:02:40;;;;;;;1.40;0.80;;;;;;;;;;5021128;28;20065;-86
2023/12/22 12:05:10;;;;;;;2.83;0.80;;;;;;;;;;5017793;28;20077;-86
2023/12/22 12:07:44;;;;;;;4.45;0.85;;;;;;;;;;5018823;28;20057;-86
2023/12/22 12:10:14;;;;;;;0.57;0.57;;;;;;;;;;5019406;28;20100;-86
2023/12/22 12:12:42;;;;;;;2.15;0.70;;;;;;;;;;5020505;28;20303;-85
2023/12/22 12:15:14;;;;;;;1.10;0.85;;;;;;;;;;5018895;28;20075;-84
2023/12/22 12:17:43;;;;;;;2.38;0.65;;;;;;;;;;5019974;28;20058;-85
2023/12/22 12:20:12;;;;;;;0.90;0.75;;;;;;;;;;5018842;28;20172;-85
2023/12/22 12:22:41;;;;;;;1.20;1.02;;;;;;;;;;5018220;28;20061;-85
2023/12/22 12:25:10;;;;;;;1.30;0.70;;;;;;;;;;5020250;28;20057;-84
2023/12/22 12:28:02;;;;;;;1.65;0.73;;;;;;;;;;5019430;28;20065;-85
2023/12/22 12:30:32;;;;;;;1.67;0.60;;;;;;;;;;5018509;28;20052;-84
2023/12/22 12:33:07;;;;;;;0.40;0.40;;;;;;;;;;5021492;28;20326;-85
2023/12/22 12:35:36;;;;;;;;;;;;;;;;;;5020670;28;20058;-85
2023/12/22 12:38:08;;;;;;;0.70;0.70;;;;;;;;;;5021946;28;20366;-87
2023/12/22 12:40:39;;;;;;;1.88;0.90;;;;;;;;;;5017821;28;20073;-84
2023/12/22 12:43:07;;;;;;;2.88;0.73;;;;;;;;;;5019378;28;20057;-85
2023/12/22 12:45:37;;;;;;;1.35;0.73;;;;;;;;;;5020863;28;20057;-83
2023/12/22 12:48:06;;;;;;;2.15;0.65;;;;;;;;;;5017445;28;20379;-84
2023/12/22 12:50:36;;;;;;;4.65;1.55;;;;;;;;;;5017432;28;20045;-84
2023/12/22 12:53:07;;;;;;;1.70;0.70;;;;;;;;;;5020050;28;20056;-83
2023/12/22 12:55:36;;;;;;;2.15;0.80;;;;;;;;;;5016858;28;20139;-88
2023/12/22 12:58:05;;;;;;;2.35;0.80;;;;;;;;;;5019429;28;20562;-89
2023/12/22 13:00:35;;;;;;;3.55;0.88;;;;;;;;;;5017232;28;20428;-89
2023/12/22 13:03:06;;;;;;;1.90;0.70;;;;;;;;;;5018679;28;20490;-89
2023/12/22 13:05:36;;;;;;;1.17;0.65;;;;;;;;;;5018766;28;20042;-89
2023/12/22 13:08:09;;;;;;;1.42;0.77;;;;;;;;;;5015394;28;20064;-88
2023/12/22 13:10:40;;;;;;;2.88;0.93;;;;;;;;;;5017474;28;20085;-89
2023/12/22 13:13:10;;;;;;;3.65;0.75;;;;;;;;;;5018786;28;20573;-88
2023/12/22 13:15:42;;;;;;;2.75;0.77;;;;;;;;;;5017774;28;20049;-88
2023/12/22 13:18:13;;;;;;;0.82;0.73;;;;;;;;;;5019602;28;20083;-88
2023/12/22 13:20:42;;;;;;;0.70;0.50;;;;;;;;;;5022154;28;20062;-89
2023/12/22 13:23:10;;;;;;;1.30;0.70;;;;;;;;;;5019901;28;20072;-88
2023/12/22 13:25:39;;;;;;;1.20;0.65;;;;;;;;;;5020161;28;20091;-89
2023/12/22 13:28:08;;;;;;;3.63;0.88;;;;;;;;;;5016543;28;20497;-90
2023/12/22 13:30:38;;;;;;;1.20;0.73;;;;;;;;;;5016187;28;20060;-89
2023/12/22 13:33:07;;;;;;;0.95;0.95;;;;;;;;;;5019166;28;20053;-88
2023/12/22 13:35:37;;;;;;;1.80;0.80;;;;;;;;;;5020187;28;20517;-88
2023/12/22 13:38:10;;;;;;;1.02;0.60;;;;;;;;;;5016629;28;20049;-90
2023/12/22 13:40:42;;;;;;;1.25;0.82;;;;;;;;;;5020833;28;20072;-90
2023/12/22 13:43:10;;;;;;;2.05;0.70;;;;;;;;;;5015204;28;20037;-85
2023/12/22 13:45:39;;;;;;;1.95;0.50;;;;;;;;;;5016868;28;20099;-85
2023/12/22 13:48:07;;;;;;;1.13;0.60;;;;;;;;;;5017426;28;20057;-84
2023/12/22 13:50:40;;;;;;;0.60;0.55;;;;;;;;;;5017330;28;20050;-84
2023/12/22 13:53:09;;;;;;;1.00;0.73;;;;;;;;;;5018870;28;20140;-85
2023/12/22 13:55:38;;;;;;;2.30;1.17;;;;;;;;;;5016504;28;20531;-84
2023/12/22 13:58:09;;;;;;;2.53;0.73;;;;;;;;;;5015389;28;20096;-85
2023/12/22 14:00:37;;;;;;;1.83;0.70;;;;;;;;;;5016234;28;20054;-85
2023/12/22 14:03:06;;;;;;;1.48;0.80;;;;;;;;;;5013039;28;20136;-85
2023/12/22 14:05:35;;;;;;;1.00;0.65;;;;;;;;;;5017322;28;20184;-85
2023/12/22 14:08:06;;;;;;;3.20;0.80;;;;;;;;;;5019991;28;20054;-84
2023/12/22 14:10:35;;;;;;;0.98;0.65;;;;;;;;;;5020993;28;20472;-84
2023/12/22 14:13:03;;;;;;;2.20;0.80;;;;;;;;;;5020569;28;20068;-84
2023/12/22 14:15:31;;;;;;;1.10;0.70;;;;;;;;;;5020261;28;20058;-85
2023/12/22 14:18:11;;;;;;;1.90;0.73;;;;;;;;;;5020405;28;20512;-84
2023/12/22 14:20:40;;;;;;;2.08;0.80;;;;;;;;;;5022924;28;20046;-84
2023/12/22 14:23:11;;;;;;;1.88;0.80;;;;;;;;;;5022388;28;20042;-84
2023/12/22 14:25:42;;;;;;;1.98;0.80;;;;;;;;;;5022783;28;20054;-84
2023/12/22 14:28:11;;;;;;;0.45;0.45;;;;;;;;;;5023700;28;20513;-84
2023/12/22 14:30:39;;;;;;;2.50;0.75;;;;;;;;;;5020878;28;20512;-86
2023/12/22 14:33:07;;;;;;;5.07;0.60;;;;;;;;;;5021418;28;20252;-85
2023/12/22 14:35:37;;;;;;;0.60;0.60;;;;;;;;;;5022886;28;20045;-84
2023/12/22 14:38:05;;;;;;;0.95;0.68;;;;;;;;;;5023182;28;20049;-85
2023/12/22 14:40:35;;;;;;;1.08;0.60;;;;;;;;;;5019855;28;20046;-85
2023/12/22 14:43:04;;;;;;;3.25;0.80;;;;;;;;;;5021839;28;20132;-85
2023/12/22 14:45:32;;;;;;;1.15;0.50;;;;;;;;;;5025219;28;20076;-85
2023/12/22 14:48:01;;;;;;;1.13;0.60;;;;;;;;;;5021525;28;20048;-85
2023/12/22 14:50:29;;;;;;;3.88;0.57;;;;;;;;;;5014904;28;20049;-84
2023/12/22 14:52:58;;;;;;;1.58;0.80;;;;;;;;;;5021543;28;20057;-85
2023/12/22 14:55:27;;;;;;;1.00;0.50;;;;;;;;;;5021377;28;20064;-85